Virginia — WCW4062 — position and weather

sailwx.info

Track history (hours):
 
Tides and Currents Weather Stations Pressure Air Temp Water Temp Dewpoint Dewpoint Depression Visibility Wind Speed Wind Dir Waves Ship Positions

Virginia

Owner: WEEKS MARINE, INC., CRANFORD, NJ. More information available from US FCC via Universal Licensing System and Coast Guard Vessel Documentation Center.

Last reported at 2015-Jul-08 05:33 UTC. Time now 2015-Jul-08 06:30 UTC.
Position N 40°32' W 073°52'.

MMSI: 366939110.

Date/timePositionNaut miles runAvg speedWind from/ knotsBaromVisibWave heightAir tempDewpointWater temp
2015-Jul-08 05:33N 40°32' W 073°52'0 0.0
2015-Jul-08 04:33N 40°32' W 073°52'0 0.0
2015-Jul-08 03:33N 40°32' W 073°52'0 0.0
2015-Jul-08 02:33N 40°32' W 073°52'0 0.0
2015-Jul-08 01:33N 40°32' W 073°52'0 0.0
2015-Jul-08 00:14N 40°32' W 073°52'0 0.0
2015-Jul-07 23:33N 40°32' W 073°52'0 0.0
2015-Jul-07 22:32N 40°32' W 073°52'0 0.0
2015-Jul-07 21:08N 40°32' W 073°52'0 0.0
2015-Jul-07 20:17N 40°32' W 073°52'0 0.0
2015-Jul-07 19:13N 40°32' W 073°52'0 0.1
2015-Jul-07 18:32N 40°32' W 073°52'0 0.1
2015-Jul-07 17:33N 40°32' W 073°52'2 1.7
2015-Jul-07 16:33N 40°33' W 073°52'0 0.1
2015-Jul-07 15:33N 40°33' W 073°53'0 0.1
2015-Jul-07 14:33N 40°33' W 073°52'0 0.1
2015-Jul-07 13:32N 40°33' W 073°53'0 0.0
2015-Jul-07 12:33N 40°33' W 073°53'0 0.0
2015-Jul-07 11:33N 40°33' W 073°53'0 0.0
2015-Jul-07 10:33N 40°33' W 073°53'0 0.0
2015-Jul-07 09:32N 40°33' W 073°53'0 0.0
2015-Jul-07 08:31N 40°33' W 073°53'0 0.2
2015-Jul-07 07:32N 40°33' W 073°52'0 0.2
2015-Jul-07 06:32N 40°33' W 073°53'0 0.0
2015-Jul-07 05:33N 40°33' W 073°53'0 0.4
2015-Jul-07 04:33N 40°33' W 073°52'0 0.4
2015-Jul-07 03:33N 40°33' W 073°53'0 0.0
2015-Jul-07 02:33N 40°33' W 073°53'0 0.0
2015-Jul-07 01:33N 40°33' W 073°53'0 0.0
2015-Jul-07 00:33N 40°33' W 073°53'0 0.0
2015-Jul-06 23:33N 40°33' W 073°53'0 0.2
2015-Jul-06 22:33N 40°33' W 073°52'0 0.2
2015-Jul-06 21:33N 40°33' W 073°53'0 0.0
2015-Jul-06 20:33N 40°33' W 073°53'0 0.1
2015-Jul-06 19:33N 40°33' W 073°53'0 0.1
2015-Jul-06 18:28N 40°33' W 073°53'0 0.0
2015-Jul-06 17:33N 40°33' W 073°53'0 0.1
2015-Jul-06 16:33N 40°33' W 073°53'0 0.0
2015-Jul-06 15:31N 40°33' W 073°53'0 0.0
2015-Jul-06 14:33N 40°33' W 073°53'0 0.0
2015-Jul-06 13:33N 40°33' W 073°53'0 0.0
2015-Jul-06 12:33N 40°33' W 073°53'0 0.0
2015-Jul-06 09:25N 40°33' W 073°53'0 0.0
2015-Jul-06 01:12N 40°33' W 073°53'0 0.3
2015-Jul-06 00:24N 40°33' W 073°52'0 0.2
2015-Jul-05 23:17N 40°33' W 073°53'0 0.0
2015-Jul-05 22:29N 40°33' W 073°53'0 0.0
2015-Jul-05 21:29N 40°33' W 073°53'0 0.4
2015-Jul-05 20:33N 40°33' W 073°52'2 0.5
2015-Jul-05 17:16N 40°32' W 073°54'1 1.4
2015-Jul-05 16:14N 40°33' W 073°52'0 0.0
2015-Jul-05 09:33N 40°33' W 073°52'0 0.0
2015-Jul-04 20:11N 40°33' W 073°52'0 0.0
2015-Jul-04 19:27N 40°33' W 073°52'0 0.1
2015-Jul-04 15:21N 40°33' W 073°53'0 0.2
2015-Jul-04 14:18N 40°33' W 073°52'0 0.1
2015-Jul-04 11:28N 40°33' W 073°53'0 0.4
2015-Jul-04 10:31N 40°33' W 073°52'0 0.0
2015-Jul-04 09:31N 40°33' W 073°52'0 0.0
2015-Jul-04 08:33N 40°33' W 073°52'0 0.2
2015-Jul-04 07:33N 40°33' W 073°53'0 0.2
2015-Jul-04 06:33N 40°33' W 073°52'0 0.0
2015-Jul-04 05:33N 40°33' W 073°52'0 0.0
2015-Jul-04 04:33N 40°33' W 073°52'0 0.0
2015-Jul-04 03:33N 40°33' W 073°52'0 0.0
2015-Jul-04 02:33N 40°33' W 073°52'0 0.0
2015-Jul-04 01:33N 40°33' W 073°52'0 0.2
2015-Jul-04 00:33N 40°33' W 073°52'2 1.9
2015-Jul-03 23:32N 40°32' W 073°55'2 1.7
2015-Jul-03 22:26N 40°33' W 073°52'0 0.0
2015-Jul-03 20:17N 40°33' W 073°52'0 0.3
2015-Jul-03 19:33N 40°33' W 073°52'0 0.2
2015-Jul-03 18:32N 40°33' W 073°52'0 0.0
2015-Jul-03 16:18N 40°33' W 073°52'1 0.9
2015-Jul-03 15:33N 40°32' W 073°53'1 0.7
2015-Jul-03 14:32N 40°33' W 073°52'0 0.0
2015-Jul-03 13:31N 40°33' W 073°52'0 0.0
2015-Jul-03 12:33N 40°33' W 073°52'0 0.0
2015-Jul-03 11:33N 40°33' W 073°52'0 0.0
2015-Jul-03 10:25N 40°33' W 073°52'0 0.0
2015-Jul-03 09:12N 40°33' W 073°52'0 0.0
2015-Jul-03 08:32N 40°33' W 073°52'0 0.2
2015-Jul-03 07:33N 40°33' W 073°52'0 0.5
2015-Jul-03 06:33N 40°33' W 073°52'0 0.4
2015-Jul-03 05:33N 40°33' W 073°52'0 0.1
2015-Jul-03 04:32N 40°33' W 073°52'0 0.0
2015-Jul-03 03:12N 40°33' W 073°52'0 0.0
2015-Jul-03 02:33N 40°33' W 073°52'0 0.0
2015-Jul-03 01:32N 40°33' W 073°52'0 0.3
2015-Jul-03 00:33N 40°33' W 073°52'0 0.3
2015-Jul-02 23:33N 40°33' W 073°52'0 0.0
2015-Jul-02 22:31N 40°33' W 073°52'0 0.0
2015-Jul-02 21:32N 40°33' W 073°52'0 0.0
2015-Jul-02 20:25N 40°33' W 073°52'0 0.0
2015-Jul-02 19:31N 40°33' W 073°52'0 0.0
2015-Jul-02 18:23N 40°33' W 073°52'0 0.0
2015-Jul-02 17:32N 40°33' W 073°52'0 0.0
2015-Jul-02 15:26N 40°33' W 073°52'0 0.3
2015-Jul-02 14:26N 40°32' W 073°52'0 0.2
2015-Jul-02 13:22N 40°33' W 073°52'0 0.0
2015-Jul-02 12:13N 40°33' W 073°52'0 0.0
2015-Jul-02 11:32N 40°33' W 073°52'0 0.0
2015-Jul-02 10:32N 40°33' W 073°52'0 0.0
2015-Jul-02 09:15N 40°33' W 073°52'0 0.0
2015-Jul-02 08:30N 40°33' W 073°52'0 0.1
2015-Jul-02 07:30N 40°33' W 073°52'0 0.4
2015-Jul-02 06:33N 40°33' W 073°52'0 0.1
2015-Jul-02 03:06N 40°33' W 073°52'0 0.0
2015-Jul-02 02:25N 40°33' W 073°52'0 0.0
2015-Jul-02 01:15N 40°33' W 073°52'0 0.0
2015-Jul-02 00:27N 40°33' W 073°52'0 0.0
2015-Jul-01 22:20N 40°33' W 073°52'0 0.0
2015-Jul-01 21:33N 40°33' W 073°52'0 0.0
2015-Jul-01 20:19N 40°33' W 073°52'0 0.4
2015-Jul-01 19:32N 40°32' W 073°52'0 0.2
2015-Jul-01 18:12N 40°33' W 073°52'0 0.0
2015-Jul-01 16:09N 40°33' W 073°52'0 0.0
2015-Jul-01 15:21N 40°33' W 073°52'0 0.3
2015-Jul-01 14:27N 40°32' W 073°52'0 0.3
2015-Jul-01 13:26N 40°33' W 073°52'0 0.3
2015-Jul-01 12:31N 40°33' W 073°52'0 0.2
2015-Jul-01 11:33N 40°33' W 073°52'0 0.0
2015-Jul-01 07:24N 40°33' W 073°52'0 0.3
2015-Jul-01 06:33N 40°33' W 073°52'0 0.1
2015-Jul-01 05:17N 40°33' W 073°52'0 0.0
2015-Jul-01 04:33N 40°33' W 073°52'0 0.0
2015-Jul-01 03:33N 40°33' W 073°52'0 0.0
2015-Jul-01 02:33N 40°33' W 073°52'0 0.0
2015-Jul-01 01:33N 40°33' W 073°52'0 0.0
2015-Jul-01 00:30N 40°33' W 073°52'0 0.0
2015-Jun-30 23:33N 40°33' W 073°52'0 0.0
2015-Jun-30 22:33N 40°33' W 073°52'0 0.0
2015-Jun-30 21:33N 40°33' W 073°52'0 0.0
2015-Jun-30 20:32N 40°33' W 073°52'0 0.0
2015-Jun-30 19:33N 40°33' W 073°52'0 0.3
2015-Jun-30 18:33N 40°33' W 073°52'0 0.2
2015-Jun-30 17:30N 40°33' W 073°52'0 0.0
2015-Jun-30 16:10N 40°33' W 073°52'0 0.4
2015-Jun-30 15:33N 40°32' W 073°52'0 0.2
2015-Jun-30 14:33N 40°33' W 073°52'0 0.0
2015-Jun-30 13:28N 40°33' W 073°52'0 0.0
2015-Jun-30 12:33N 40°33' W 073°52'0 0.2
2015-Jun-30 11:33N 40°32' W 073°52'1 1.2
2015-Jun-30 10:33N 40°32' W 073°53'3 2.6
2015-Jun-30 09:33N 40°34' W 073°56'2 1.5
2015-Jun-30 08:33N 40°34' W 073°54'0 0.0
2015-Jun-30 07:33N 40°34' W 073°54'0 0.0
2015-Jun-30 06:33N 40°34' W 073°54'0 0.0
2015-Jun-30 05:33N 40°34' W 073°54'0 0.0
2015-Jun-30 04:33N 40°34' W 073°54'0 0.0
2015-Jun-30 03:33N 40°34' W 073°54'0 0.0
2015-Jun-30 02:33N 40°34' W 073°54'0 0.0
2015-Jun-30 01:27N 40°34' W 073°54'0 0.0
2015-Jun-30 00:33N 40°34' W 073°54'0 0.0
2015-Jun-29 23:33N 40°34' W 073°54'0 0.0
2015-Jun-29 22:33N 40°34' W 073°54'0 0.0
2015-Jun-29 21:25N 40°34' W 073°54'0 0.0
2015-Jun-29 20:32N 40°34' W 073°54'0 0.0
2015-Jun-29 19:33N 40°34' W 073°54'0 0.0
2015-Jun-29 18:33N 40°34' W 073°54'0 0.0
2015-Jun-29 17:33N 40°34' W 073°54'0 0.0
2015-Jun-29 16:33N 40°34' W 073°54'0 0.0
2015-Jun-29 15:33N 40°34' W 073°54'0 0.0
2015-Jun-29 14:32N 40°34' W 073°54'0 0.0
2015-Jun-29 13:33N 40°34' W 073°54'0 0.0
2015-Jun-29 12:33N 40°34' W 073°54'0 0.0
2015-Jun-29 11:32N 40°34' W 073°54'0 0.0
2015-Jun-29 07:12N 40°34' W 073°54'0 0.0
2015-Jun-29 06:11N 40°34' W 073°54'0 0.0
2015-Jun-29 05:18N 40°34' W 073°54'0 0.0
2015-Jun-29 04:32N 40°34' W 073°54'0 0.0
2015-Jun-29 03:26N 40°34' W 073°54'0 0.0
2015-Jun-29 02:30N 40°34' W 073°54'0 0.0
2015-Jun-29 01:32N 40°34' W 073°54'0 0.0
2015-Jun-29 00:10N 40°34' W 073°54'0 0.0
2015-Jun-28 23:30N 40°34' W 073°54'0 0.0
2015-Jun-28 21:19N 40°34' W 073°54'0 0.0
2015-Jun-28 20:04N 40°34' W 073°54'0 0.0
2015-Jun-28 19:22N 40°34' W 073°54'0 0.0
2015-Jun-28 18:32N 40°34' W 073°54'0 0.0
2015-Jun-28 17:32N 40°34' W 073°54'0 0.0
2015-Jun-28 16:33N 40°34' W 073°54'0 0.0
2015-Jun-28 15:33N 40°34' W 073°54'0 0.0
2015-Jun-28 14:33N 40°34' W 073°54'0 0.0
2015-Jun-28 13:33N 40°34' W 073°54'0 0.0
2015-Jun-28 12:33N 40°34' W 073°54'0 0.0
2015-Jun-28 11:33N 40°34' W 073°54'0 0.0
2015-Jun-28 10:33N 40°34' W 073°54'0 0.0
2015-Jun-28 09:33N 40°34' W 073°54'0 0.0
2015-Jun-28 08:33N 40°34' W 073°54'0 0.0
2015-Jun-28 07:24N 40°34' W 073°54'0 0.0
2015-Jun-28 06:30N 40°34' W 073°54'  
Track history (hours):
 
Tides and Currents Weather Stations Pressure Air Temp Water Temp Dewpoint Dewpoint Depression Visibility Wind Speed Wind Dir Waves Ship Positions

Virginia

Owner: WEEKS MARINE, INC., CRANFORD, NJ. More information available from US FCC via Universal Licensing System and Coast Guard Vessel Documentation Center.

Last reported at 2015-Jul-08 05:33 UTC. Time now 2015-Jul-08 06:30 UTC.
Position N 40°32' W 073°52'.

MMSI: 366939110.

Date/timePositionNaut miles runAvg speedWind from/ knotsBaromVisibWave heightAir tempDewpointWater temp
2015-Jul-08 05:33N 40°32' W 073°52'0 0.0
2015-Jul-08 04:33N 40°32' W 073°52'0 0.0
2015-Jul-08 03:33N 40°32' W 073°52'0 0.0
2015-Jul-08 02:33N 40°32' W 073°52'0 0.0
2015-Jul-08 01:33N 40°32' W 073°52'0 0.0
2015-Jul-08 00:14N 40°32' W 073°52'0 0.0
2015-Jul-07 23:33N 40°32' W 073°52'0 0.0
2015-Jul-07 22:32N 40°32' W 073°52'0 0.0
2015-Jul-07 21:08N 40°32' W 073°52'0 0.0
2015-Jul-07 20:17N 40°32' W 073°52'0 0.0
2015-Jul-07 19:13N 40°32' W 073°52'0 0.1
2015-Jul-07 18:32N 40°32' W 073°52'0 0.1
2015-Jul-07 17:33N 40°32' W 073°52'2 1.7
2015-Jul-07 16:33N 40°33' W 073°52'0 0.1
2015-Jul-07 15:33N 40°33' W 073°53'0 0.1
2015-Jul-07 14:33N 40°33' W 073°52'0 0.1
2015-Jul-07 13:32N 40°33' W 073°53'0 0.0
2015-Jul-07 12:33N 40°33' W 073°53'0 0.0
2015-Jul-07 11:33N 40°33' W 073°53'0 0.0
2015-Jul-07 10:33N 40°33' W 073°53'0 0.0
2015-Jul-07 09:32N 40°33' W 073°53'0 0.0
2015-Jul-07 08:31N 40°33' W 073°53'0 0.2
2015-Jul-07 07:32N 40°33' W 073°52'0 0.2
2015-Jul-07 06:32N 40°33' W 073°53'0 0.0
2015-Jul-07 05:33N 40°33' W 073°53'0 0.4
2015-Jul-07 04:33N 40°33' W 073°52'0 0.4
2015-Jul-07 03:33N 40°33' W 073°53'0 0.0
2015-Jul-07 02:33N 40°33' W 073°53'0 0.0
2015-Jul-07 01:33N 40°33' W 073°53'0 0.0
2015-Jul-07 00:33N 40°33' W 073°53'0 0.0
2015-Jul-06 23:33N 40°33' W 073°53'0 0.2
2015-Jul-06 22:33N 40°33' W 073°52'0 0.2
2015-Jul-06 21:33N 40°33' W 073°53'0 0.0
2015-Jul-06 20:33N 40°33' W 073°53'0 0.1
2015-Jul-06 19:33N 40°33' W 073°53'0 0.1
2015-Jul-06 18:28N 40°33' W 073°53'0 0.0
2015-Jul-06 17:33N 40°33' W 073°53'0 0.1
2015-Jul-06 16:33N 40°33' W 073°53'0 0.0
2015-Jul-06 15:31N 40°33' W 073°53'0 0.0
2015-Jul-06 14:33N 40°33' W 073°53'0 0.0
2015-Jul-06 13:33N 40°33' W 073°53'0 0.0
2015-Jul-06 12:33N 40°33' W 073°53'0 0.0
2015-Jul-06 09:25N 40°33' W 073°53'0 0.0
2015-Jul-06 01:12N 40°33' W 073°53'0 0.3
2015-Jul-06 00:24N 40°33' W 073°52'0 0.2
2015-Jul-05 23:17N 40°33' W 073°53'0 0.0
2015-Jul-05 22:29N 40°33' W 073°53'0 0.0
2015-Jul-05 21:29N 40°33' W 073°53'0 0.4
2015-Jul-05 20:33N 40°33' W 073°52'2 0.5
2015-Jul-05 17:16N 40°32' W 073°54'1 1.4
2015-Jul-05 16:14N 40°33' W 073°52'0 0.0
2015-Jul-05 09:33N 40°33' W 073°52'0 0.0
2015-Jul-04 20:11N 40°33' W 073°52'0 0.0
2015-Jul-04 19:27N 40°33' W 073°52'0 0.1
2015-Jul-04 15:21N 40°33' W 073°53'0 0.2
2015-Jul-04 14:18N 40°33' W 073°52'0 0.1
2015-Jul-04 11:28N 40°33' W 073°53'0 0.4
2015-Jul-04 10:31N 40°33' W 073°52'0 0.0
2015-Jul-04 09:31N 40°33' W 073°52'0 0.0
2015-Jul-04 08:33N 40°33' W 073°52'0 0.2
2015-Jul-04 07:33N 40°33' W 073°53'0 0.2
2015-Jul-04 06:33N 40°33' W 073°52'0 0.0
2015-Jul-04 05:33N 40°33' W 073°52'0 0.0
2015-Jul-04 04:33N 40°33' W 073°52'0 0.0
2015-Jul-04 03:33N 40°33' W 073°52'0 0.0
2015-Jul-04 02:33N 40°33' W 073°52'0 0.0
2015-Jul-04 01:33N 40°33' W 073°52'0 0.2
2015-Jul-04 00:33N 40°33' W 073°52'2 1.9
2015-Jul-03 23:32N 40°32' W 073°55'2 1.7
2015-Jul-03 22:26N 40°33' W 073°52'0 0.0
2015-Jul-03 20:17N 40°33' W 073°52'0 0.3
2015-Jul-03 19:33N 40°33' W 073°52'0 0.2
2015-Jul-03 18:32N 40°33' W 073°52'0 0.0
2015-Jul-03 16:18N 40°33' W 073°52'1 0.9
2015-Jul-03 15:33N 40°32' W 073°53'1 0.7
2015-Jul-03 14:32N 40°33' W 073°52'0 0.0
2015-Jul-03 13:31N 40°33' W 073°52'0 0.0
2015-Jul-03 12:33N 40°33' W 073°52'0 0.0
2015-Jul-03 11:33N 40°33' W 073°52'0 0.0
2015-Jul-03 10:25N 40°33' W 073°52'0 0.0
2015-Jul-03 09:12N 40°33' W 073°52'0 0.0
2015-Jul-03 08:32N 40°33' W 073°52'0 0.2
2015-Jul-03 07:33N 40°33' W 073°52'0 0.5
2015-Jul-03 06:33N 40°33' W 073°52'0 0.4
2015-Jul-03 05:33N 40°33' W 073°52'0 0.1
2015-Jul-03 04:32N 40°33' W 073°52'0 0.0
2015-Jul-03 03:12N 40°33' W 073°52'0 0.0
2015-Jul-03 02:33N 40°33' W 073°52'0 0.0
2015-Jul-03 01:32N 40°33' W 073°52'0 0.3
2015-Jul-03 00:33N 40°33' W 073°52'0 0.3
2015-Jul-02 23:33N 40°33' W 073°52'0 0.0
2015-Jul-02 22:31N 40°33' W 073°52'0 0.0
2015-Jul-02 21:32N 40°33' W 073°52'0 0.0
2015-Jul-02 20:25N 40°33' W 073°52'0 0.0
2015-Jul-02 19:31N 40°33' W 073°52'0 0.0
2015-Jul-02 18:23N 40°33' W 073°52'0 0.0
2015-Jul-02 17:32N 40°33' W 073°52'0 0.0
2015-Jul-02 15:26N 40°33' W 073°52'0 0.3
2015-Jul-02 14:26N 40°32' W 073°52'0 0.2
2015-Jul-02 13:22N 40°33' W 073°52'0 0.0
2015-Jul-02 12:13N 40°33' W 073°52'0 0.0
2015-Jul-02 11:32N 40°33' W 073°52'0 0.0
2015-Jul-02 10:32N 40°33' W 073°52'0 0.0
2015-Jul-02 09:15N 40°33' W 073°52'0 0.0
2015-Jul-02 08:30N 40°33' W 073°52'0 0.1
2015-Jul-02 07:30N 40°33' W 073°52'0 0.4
2015-Jul-02 06:33N 40°33' W 073°52'0 0.1
2015-Jul-02 03:06N 40°33' W 073°52'0 0.0
2015-Jul-02 02:25N 40°33' W 073°52'0 0.0
2015-Jul-02 01:15N 40°33' W 073°52'0 0.0
2015-Jul-02 00:27N 40°33' W 073°52'0 0.0
2015-Jul-01 22:20N 40°33' W 073°52'0 0.0
2015-Jul-01 21:33N 40°33' W 073°52'0 0.0
2015-Jul-01 20:19N 40°33' W 073°52'0 0.4
2015-Jul-01 19:32N 40°32' W 073°52'0 0.2
2015-Jul-01 18:12N 40°33' W 073°52'0 0.0
2015-Jul-01 16:09N 40°33' W 073°52'0 0.0
2015-Jul-01 15:21N 40°33' W 073°52'0 0.3
2015-Jul-01 14:27N 40°32' W 073°52'0 0.3
2015-Jul-01 13:26N 40°33' W 073°52'0 0.3
2015-Jul-01 12:31N 40°33' W 073°52'0 0.2
2015-Jul-01 11:33N 40°33' W 073°52'0 0.0
2015-Jul-01 07:24N 40°33' W 073°52'0 0.3
2015-Jul-01 06:33N 40°33' W 073°52'0 0.1
2015-Jul-01 05:17N 40°33' W 073°52'0 0.0
2015-Jul-01 04:33N 40°33' W 073°52'0 0.0
2015-Jul-01 03:33N 40°33' W 073°52'0 0.0
2015-Jul-01 02:33N 40°33' W 073°52'0 0.0
2015-Jul-01 01:33N 40°33' W 073°52'0 0.0
2015-Jul-01 00:30N 40°33' W 073°52'0 0.0
2015-Jun-30 23:33N 40°33' W 073°52'0 0.0
2015-Jun-30 22:33N 40°33' W 073°52'0 0.0
2015-Jun-30 21:33N 40°33' W 073°52'0 0.0
2015-Jun-30 20:32N 40°33' W 073°52'0 0.0
2015-Jun-30 19:33N 40°33' W 073°52'0 0.3
2015-Jun-30 18:33N 40°33' W 073°52'0 0.2
2015-Jun-30 17:30N 40°33' W 073°52'0 0.0
2015-Jun-30 16:10N 40°33' W 073°52'0 0.4
2015-Jun-30 15:33N 40°32' W 073°52'0 0.2
2015-Jun-30 14:33N 40°33' W 073°52'0 0.0
2015-Jun-30 13:28N 40°33' W 073°52'0 0.0
2015-Jun-30 12:33N 40°33' W 073°52'0 0.2
2015-Jun-30 11:33N 40°32' W 073°52'1 1.2
2015-Jun-30 10:33N 40°32' W 073°53'3 2.6
2015-Jun-30 09:33N 40°34' W 073°56'2 1.5
2015-Jun-30 08:33N 40°34' W 073°54'0 0.0
2015-Jun-30 07:33N 40°34' W 073°54'0 0.0
2015-Jun-30 06:33N 40°34' W 073°54'0 0.0
2015-Jun-30 05:33N 40°34' W 073°54'0 0.0
2015-Jun-30 04:33N 40°34' W 073°54'0 0.0
2015-Jun-30 03:33N 40°34' W 073°54'0 0.0
2015-Jun-30 02:33N 40°34' W 073°54'0 0.0
2015-Jun-30 01:27N 40°34' W 073°54'0 0.0
2015-Jun-30 00:33N 40°34' W 073°54'0 0.0
2015-Jun-29 23:33N 40°34' W 073°54'0 0.0
2015-Jun-29 22:33N 40°34' W 073°54'0 0.0
2015-Jun-29 21:25N 40°34' W 073°54'0 0.0
2015-Jun-29 20:32N 40°34' W 073°54'0 0.0
2015-Jun-29 19:33N 40°34' W 073°54'0 0.0
2015-Jun-29 18:33N 40°34' W 073°54'0 0.0
2015-Jun-29 17:33N 40°34' W 073°54'0 0.0
2015-Jun-29 16:33N 40°34' W 073°54'0 0.0
2015-Jun-29 15:33N 40°34' W 073°54'0 0.0
2015-Jun-29 14:32N 40°34' W 073°54'0 0.0
2015-Jun-29 13:33N 40°34' W 073°54'0 0.0
2015-Jun-29 12:33N 40°34' W 073°54'0 0.0
2015-Jun-29 11:32N 40°34' W 073°54'0 0.0
2015-Jun-29 07:12N 40°34' W 073°54'0 0.0
2015-Jun-29 06:11N 40°34' W 073°54'0 0.0
2015-Jun-29 05:18N 40°34' W 073°54'0 0.0
2015-Jun-29 04:32N 40°34' W 073°54'0 0.0
2015-Jun-29 03:26N 40°34' W 073°54'0 0.0
2015-Jun-29 02:30N 40°34' W 073°54'0 0.0
2015-Jun-29 01:32N 40°34' W 073°54'0 0.0
2015-Jun-29 00:10N 40°34' W 073°54'0 0.0
2015-Jun-28 23:30N 40°34' W 073°54'0 0.0
2015-Jun-28 21:19N 40°34' W 073°54'0 0.0
2015-Jun-28 20:04N 40°34' W 073°54'0 0.0
2015-Jun-28 19:22N 40°34' W 073°54'0 0.0
2015-Jun-28 18:32N 40°34' W 073°54'0 0.0
2015-Jun-28 17:32N 40°34' W 073°54'0 0.0
2015-Jun-28 16:33N 40°34' W 073°54'0 0.0
2015-Jun-28 15:33N 40°34' W 073°54'0 0.0
2015-Jun-28 14:33N 40°34' W 073°54'0 0.0
2015-Jun-28 13:33N 40°34' W 073°54'0 0.0
2015-Jun-28 12:33N 40°34' W 073°54'0 0.0
2015-Jun-28 11:33N 40°34' W 073°54'0 0.0
2015-Jun-28 10:33N 40°34' W 073°54'0 0.0
2015-Jun-28 09:33N 40°34' W 073°54'0 0.0
2015-Jun-28 08:33N 40°34' W 073°54'0 0.0
2015-Jun-28 07:24N 40°34' W 073°54'0 0.0
2015-Jun-28 06:30N 40°34' W 073°54'  

Dump ship's entire track history